Time;durP1;ratioP1;P1;durP2;ratioP2;P2;SDS_P1;SDS_P2;PMS_P1;PMS_P2;Temp;Humidity;BMP_temperature;BMP_pressure;BME280_temperature;BME280_humidity;BME280_pressure;Samples;Min_cycle;Max_cycle;Signal;HPM_P1;HPM_P2
2022/09/15 00:00:17;;;;;;;13.35;11.75;;;26.20;99.90;;;;;;1905158;73;21110;-82
2022/09/15 00:02:48;;;;;;;16.05;11.38;;;26.20;99.90;;;;;;1884461;73;21167;-82
2022/09/15 00:05:19;;;;;;;15.53;12.82;;;26.20;99.90;;;;;;1871526;76;21167;-82
2022/09/15 00:07:50;;;;;;;15.20;13.60;;;26.20;99.90;;;;;;1894832;74;21224;-83
2022/09/15 00:10:21;;;;;;;15.03;12.75;;;26.30;99.90;;;;;;1906383;73;21551;-82
2022/09/15 00:12:52;;;;;;;19.90;14.55;;;26.30;99.90;;;;;;1905645;74;21121;-82
2022/09/15 00:15:23;;;;;;;17.60;14.83;;;26.30;99.90;;;;;;1892034;74;21168;-81
2022/09/15 00:17:54;;;;;;;17.90;13.98;;;26.40;99.90;;;;;;1898686;73;21153;-82
2022/09/15 00:20:25;;;;;;;18.15;14.75;;;26.40;99.90;;;;;;1916463;73;21172;-82
2022/09/15 00:22:59;;;;;;;17.45;14.60;;;26.50;99.90;;;;;;1903931;74;21141;-83
2022/09/15 00:25:30;;;;;;;17.40;13.58;;;26.50;99.90;;;;;;1849265;76;21257;-82
2022/09/15 00:28:00;;;;;;;21.02;15.65;;;26.50;99.90;;;;;;1878301;75;21594;-82
2022/09/15 00:30:31;;;;;;;17.10;15.30;;;26.50;99.90;;;;;;1893630;74;21638;-82
2022/09/15 00:33:02;;;;;;;21.42;15.65;;;26.60;99.90;;;;;;1898258;74;21612;-83
2022/09/15 00:35:34;;;;;;;22.00;16.77;;;26.60;99.90;;;;;;1892666;74;21751;-82
2022/09/15 00:38:05;;;;;;;18.87;16.35;;;26.70;99.90;;;;;;1884616;75;21120;-83
2022/09/15 00:40:38;;;;;;;20.60;15.65;;;26.70;99.90;;;;;;1865108;74;21115;-82
2022/09/15 00:43:11;;;;;;;20.97;15.32;;;26.70;99.90;;;;;;1874693;74;21132;-82
2022/09/15 00:45:42;;;;;;;20.88;16.10;;;26.70;99.90;;;;;;1882952;73;21224;-82
2022/09/15 00:48:15;;;;;;;19.95;16.35;;;26.80;99.90;;;;;;1903499;73;21241;-83
2022/09/15 00:50:48;;;;;;;18.60;16.27;;;26.80;99.90;;;;;;1925061;73;21782;-82
2022/09/15 00:53:24;;;;;;;18.75;15.43;;;26.80;99.90;;;;;;1917695;73;21194;-84
2022/09/15 00:55:56;;;;;;;17.48;15.70;;;;;;;;;;1894496;73;21187;-71
2022/09/15 00:58:27;;;;;;;18.12;16.05;;;;;;;;;;1877002;75;21579;-72
2022/09/15 01:00:59;;;;;;;18.85;16.17;;;;;;;;;;1876371;75;21185;-72
2022/09/15 01:03:31;;;;;;;17.73;14.98;;;;;;;;;;1859923;75;22027;-73
2022/09/15 01:06:02;;;;;;;16.70;15.00;;;;;;;;;;1867822;75;21144;-72
2022/09/15 01:08:34;;;;;;;18.85;14.70;;;;;;;;;;1870595;75;21233;-72
2022/09/15 01:11:04;;;;;;;20.75;14.85;;;;;;;;;;1866857;76;21156;-72
2022/09/15 01:13:35;;;;;;;17.30;15.50;;;;;;;;;;1874876;75;21116;-72
2022/09/15 01:16:06;;;;;;;20.10;15.20;;;;;;;;;;1836254;75;21154;-72
2022/09/15 01:18:38;;;;;;;17.37;14.73;;;;;;;;;;1844481;76;21092;-72
2022/09/15 01:21:09;;;;;;;17.07;14.23;;;;;;;;;;1871591;75;21076;-72
2022/09/15 01:23:40;;;;;;;17.98;16.07;;;;;;;;;;1870846;75;21481;-72
2022/09/15 01:26:12;;;;;;;21.15;15.75;;;;;;;;;;1872660;75;21159;-72
2022/09/15 01:28:43;;;;;;;17.48;14.75;;;;;;;;;;1874370;75;21120;-72
2022/09/15 01:31:15;;;;;;;15.85;14.25;;;;;;;;;;1876055;75;21144;-72
2022/09/15 01:33:47;;;;;;;15.63;14.03;;;;;;;;;;1872206;75;21123;-72
2022/09/15 01:36:19;;;;;;;18.05;12.95;;;;;;;;;;1872801;75;21265;-72
2022/09/15 01:38:50;;;;;;;14.05;12.68;;;;;;;;;;1872586;75;21099;-72
2022/09/15 01:41:20;;;;;;;14.53;12.75;;;;;;;;;;1871415;75;21108;-72
2022/09/15 01:43:51;;;;;;;18.45;13.95;;;;;;;;;;1875748;75;21114;-72
2022/09/15 01:46:22;;;;;;;15.05;13.45;;;;;;;;;;1871982;75;21473;-72
2022/09/15 01:48:54;;;;;;;15.95;14.28;;;;;;;;;;1871170;75;21177;-71
2022/09/15 01:51:25;;;;;;;19.37;14.13;;;;;;;;;;1873497;75;21475;-71
2022/09/15 01:53:56;;;;;;;15.78;13.40;;;;;;;;;;1879078;75;21173;-70
2022/09/15 01:56:26;;;;;;;16.87;14.73;;;;;;;;;;1886628;75;21187;-72
2022/09/15 01:58:57;;;;;;;15.15;13.65;;;;;;;;;;1904222;74;21214;-72
2022/09/15 02:01:30;;;;;;;17.27;14.30;;;;;;;;;;1898805;74;21130;-72
2022/09/15 02:04:01;;;;;;;14.85;13.18;;;;;;;;;;1910111;74;21123;-72
2022/09/15 02:06:35;;;;;;;15.48;13.85;;;;;;;;;;1915665;73;21136;-72
2022/09/15 02:09:05;;;;;;;16.45;13.28;;;;;;;;;;1881991;74;21170;-72
2022/09/15 02:11:36;;;;;;;16.40;13.25;;;;;;;;;;1884576;74;21131;-72
2022/09/15 02:14:10;;;;;;;15.50;12.88;;;;;;;;;;1865978;75;21229;-72
2022/09/15 02:16:40;;;;;;;17.37;13.72;;;;;;;;;;1865846;74;21146;-72
2022/09/15 02:19:12;;;;;;;14.93;12.73;;;;;;;;;;1899871;74;21076;-72
2022/09/15 02:21:43;;;;;;;16.67;12.80;;;;;;;;;;1933013;73;21095;-72
2022/09/15 02:24:15;;;;;;;14.50;12.35;;;;;;;;;;1909467;73;21629;-72
2022/09/15 02:26:47;;;;;;;13.40;12.00;;;;;;;;;;1904004;74;21120;-70
2022/09/15 02:29:21;;;;;;;15.75;12.75;;;;;;;;;;1941257;73;21220;-73
2022/09/15 02:31:52;;;;;;;14.30;11.93;;;;;;;;;;1926945;73;21601;-72
2022/09/15 02:34:24;;;;;;;13.68;12.30;;;;;;;;;;1908212;73;21197;-72
2022/09/15 02:36:55;;;;;;;16.07;13.58;;;;;;;;;;1930702;73;21095;-72
2022/09/15 02:39:26;;;;;;;14.63;13.00;;;;;;;;;;1909364;74;21080;-72
2022/09/15 02:41:58;;;;;;;14.03;12.35;;;;;;;;;;1926032;73;21188;-71
2022/09/15 02:44:32;;;;;;;13.40;12.03;;;;;;;;;;1923441;73;21228;-72
2022/09/15 02:47:01;;;;;;;14.58;12.13;;;;;;;;;;1850026;76;21171;-73
2022/09/15 02:49:31;;;;;;;13.68;12.28;;;;;;;;;;1928769;73;21314;-72
2022/09/15 02:52:01;;;;;;;14.15;12.55;;;;;;;;;;1924439;73;21216;-72
2022/09/15 02:54:31;;;;;;;13.22;11.93;;;;;;;;;;1905725;74;21718;-72
2022/09/15 02:57:04;;;;;;;15.58;12.88;;;;;;;;;;1913762;73;21159;-72
2022/09/15 03:02:09;;;;;;;14.60;11.57;;;;;;;;;;1897756;74;21136;-72
2022/09/15 03:04:39;;;;;;;13.70;12.23;;;;;;;;;;1890566;75;21124;-73
2022/09/15 03:07:09;;;;;;;15.23;12.85;;;;;;;;;;1894683;73;21195;-72
2022/09/15 03:09:39;;;;;;;13.98;12.47;;;;;;;;;;1898866;73;21733;-72
2022/09/15 03:12:09;;;;;;;13.48;11.70;;;;;;;;;;1904344;74;21841;-72
2022/09/15 03:14:40;;;;;;;16.27;13.05;;;;;;;;;;1906047;73;21058;-73
2022/09/15 03:17:10;;;;;;;18.40;12.78;;;;;;;;;;1920964;73;21130;-72
2022/09/15 03:19:40;;;;;;;17.40;13.13;;;;;;;;;;1902774;74;21100;-72
2022/09/15 03:22:11;;;;;;;12.63;11.20;;;;;;;;;;1922128;73;21588;-72
2022/09/15 03:24:41;;;;;;;13.70;11.45;;;;;;;;;;1916833;73;21194;-72
2022/09/15 03:27:11;;;;;;;15.83;11.73;;;;;;;;;;1917649;73;21104;-72
2022/09/15 03:29:41;;;;;;;14.07;12.70;;;;;;;;;;1904802;73;22059;-72
2022/09/15 03:32:11;;;;;;;12.88;10.72;;;;;;;;;;1920357;73;21171;-73
2022/09/15 03:34:42;;;;;;;14.83;11.30;;;;;;;;;;1910273;74;21209;-72
2022/09/15 03:37:12;;;;;;;12.23;10.50;;;;;;;;;;1914518;73;21270;-73
2022/09/15 03:39:42;;;;;;;16.25;10.45;;;;;;;;;;1909010;73;21143;-72
2022/09/15 03:42:20;;;;;;;12.55;11.28;;;;;;;;;;1905067;73;21178;-72
2022/09/15 03:44:56;;;;;;;14.63;10.20;;;;;;;;;;1916224;73;21072;-72
2022/09/15 03:47:26;;;;;;;11.20;9.88;;;;;;;;;;1906383;74;21645;-72
2022/09/15 03:49:58;;;;;;;11.78;10.53;;;;;;;;;;1917776;73;21228;-72
2022/09/15 03:52:30;;;;;;;11.25;10.13;;;;;;;;;;1887636;74;21139;-72
2022/09/15 03:55:01;;;;;;;12.70;10.95;;;;;;;;;;1898947;74;21118;-74
2022/09/15 03:57:31;;;;;;;12.37;9.73;;;;;;;;;;1918468;73;21159;-75
2022/09/15 04:00:01;;;;;;;10.48;9.13;;;;;;;;;;1896904;73;21143;-73
2022/09/15 04:02:31;;;;;;;10.45;9.08;;;;;;;;;;1890274;75;21562;-72
2022/09/15 04:05:01;;;;;;;14.80;9.08;;;;;;;;;;1895887;75;21112;-72
2022/09/15 04:07:32;;;;;;;10.80;9.10;;;;;;;;;;1896214;75;21152;-72
2022/09/15 04:10:02;;;;;;;10.58;8.43;;;;;;;;;;1887335;75;21153;-72
2022/09/15 04:12:33;;;;;;;10.55;9.40;;;;;;;;;;1909225;75;21147;-71
2022/09/15 04:15:07;;;;;;;11.25;8.73;;;;;;;;;;1898940;74;21158;-71
2022/09/15 04:17:37;;;;;;;10.03;8.88;;;;;;;;;;1907049;73;21186;-71
2022/09/15 04:20:07;;;;;;;9.73;8.70;;;;;;;;;;1867820;75;22184;-72
2022/09/15 04:22:38;;;;;;;10.90;9.23;;;;;;;;;;1907172;74;21135;-72
2022/09/15 04:25:08;;;;;;;10.38;9.38;;;;;;;;;;1896083;75;21099;-72
2022/09/15 04:27:39;;;;;;;12.58;9.88;;;;;;;;;;1899808;73;21078;-72
2022/09/15 04:30:09;;;;;;;11.30;10.10;;;;;;;;;;1889047;73;21127;-72
2022/09/15 04:32:40;;;;;;;10.85;9.85;;;;;;;;;;1923749;74;21092;-72
2022/09/15 04:35:11;;;;;;;11.78;9.60;;;;;;;;;;1917928;75;21179;-72
2022/09/15 04:37:41;;;;;;;11.30;10.10;;;;;;;;;;1922385;74;21084;-72
2022/09/15 04:40:11;;;;;;;10.28;9.23;;;;;;;;;;1920999;73;21249;-72
2022/09/15 04:42:42;;;;;;;15.48;10.55;;;;;;;;;;1907942;73;21144;-73
2022/09/15 04:45:12;;;;;;;14.20;10.45;;;;;;;;;;1853050;76;21200;-72
2022/09/15 04:47:47;;;;;;;11.20;9.95;;;;;;;;;;1882998;74;21140;-72
2022/09/15 04:50:17;;;;;;;9.80;8.90;;;;;;;;;;1879473;75;21100;-72
2022/09/15 04:52:48;;;;;;;13.25;9.50;;;;;;;;;;1890685;74;21134;-73
2022/09/15 04:55:18;;;;;;;10.48;9.18;;;;;;;;;;1877078;73;21670;-72
2022/09/15 04:57:49;;;;;;;10.85;9.08;;;;;;;;;;1910981;73;21272;-72
2022/09/15 05:00:19;;;;;;;10.23;9.23;;;;;;;;;;1912498;73;21567;-72
2022/09/15 05:02:49;;;;;;;10.80;9.63;;;;;;;;;;1909195;73;21118;-73
2022/09/15 05:05:19;;;;;;;12.55;8.50;;;;;;;;;;1890636;73;21118;-73
2022/09/15 05:07:49;;;;;;;10.50;8.83;;;;;;;;;;1884756;73;21171;-73
2022/09/15 05:10:20;;;;;;;10.20;9.10;;;;;;;;;;1896367;73;21174;-73
2022/09/15 05:12:50;;;;;;;10.03;8.95;;;;;;;;;;1892426;73;21167;-73
2022/09/15 05:15:20;;;;;;;9.55;8.73;;;;;;;;;;1915832;73;21216;-73
2022/09/15 05:17:50;;;;;;;9.35;8.45;;;;;;;;;;1922592;73;21165;-73
2022/09/15 05:20:21;;;;;;;10.40;8.25;;;;;;;;;;1893088;74;21248;-73
2022/09/15 05:22:51;;;;;;;10.08;9.00;;;;;;;;;;1888471;74;21147;-72
2022/09/15 05:25:21;;;;;;;11.63;8.38;;;;;;;;;;1921756;73;21443;-71
2022/09/15 05:28:14;;;;;;;9.60;8.60;;;;;;;;;;1897989;75;21248;-72
2022/09/15 05:31:03;;;;;;;11.95;7.92;;;;;;;;;;1891715;74;21083;-72
2022/09/15 05:33:34;;;;;;;9.73;8.10;;;;;;;;;;1890549;75;21187;-73
2022/09/15 05:36:08;;;;;;;9.53;7.30;;;;;;;;;;1902729;75;21072;-72
2022/09/15 05:38:38;;;;;;;8.58;7.62;;;;;;;;;;1893035;74;21084;-72
2022/09/15 05:41:09;;;;;;;7.80;7.00;;;;;;;;;;1906261;74;21060;-73
2022/09/15 05:43:40;;;;;;;9.35;7.78;;;;;;;;;;1894975;73;21206;-73
2022/09/15 05:46:10;;;;;;;9.25;8.35;;;;;;;;;;1896689;75;21194;-73
2022/09/15 05:48:41;;;;;;;8.93;7.92;;;;;;;;;;1902683;74;21084;-73
2022/09/15 05:51:11;;;;;;;9.55;8.65;;;;;;;;;;1871016;76;21112;-73
2022/09/15 05:53:41;;;;;;;9.80;7.62;;;;;;;;;;1884400;73;21602;-73
2022/09/15 05:56:12;;;;;;;8.10;7.17;;;;;;;;;;1913967;74;21133;-73
2022/09/15 05:58:43;;;;;;;9.18;7.40;;;;;;;;;;1920167;74;21127;-73
2022/09/15 06:01:14;;;;;;;10.95;8.23;;;;;;;;;;1899425;75;21175;-73
2022/09/15 06:03:48;;;;;;;10.58;8.23;;;;;;;;;;1890467;73;21118;-73
2022/09/15 06:06:24;;;;;;;10.20;8.25;;;;;;;;;;1862099;74;21094;-72
2022/09/15 06:08:56;;;;;;;9.13;8.23;;;;;;;;;;1847517;76;21156;-73
2022/09/15 06:11:28;;;;;;;10.40;8.55;;;;;;;;;;1791419;77;21179;-73
2022/09/15 06:14:01;;;;;;;8.28;7.42;;;;;;;;;;1863812;76;21227;-72
2022/09/15 06:16:33;;;;;;;9.13;7.50;;;;;;;;;;1858755;76;21092;-73
2022/09/15 06:19:07;;;;;;;9.20;7.92;;;;;;;;;;1878104;76;21659;-73
2022/09/15 06:21:37;;;;;;;8.98;7.87;;;;;;;;;;1852887;75;21163;-72
2022/09/15 06:24:07;;;;;;;9.28;7.92;;;;;;;;;;1864125;76;21809;-73
2022/09/15 06:26:37;;;;;;;9.28;8.13;;;;;;;;;;1864219;76;21116;-72
2022/09/15 06:29:09;;;;;;;9.23;7.80;;;;;;;;;;1871340;76;21096;-73
2022/09/15 06:31:40;;;;;;;9.73;8.15;;;;;;;;;;1796693;78;21158;-73
2022/09/15 06:34:10;;;;;;;10.53;8.33;;;;;;;;;;1785990;78;21168;-73
2022/09/15 06:36:40;;;;;;;10.35;8.20;;;;;;;;;;1770845;78;21110;-73
2022/09/15 06:39:11;;;;;;;10.98;8.18;;;;;;;;;;1773112;79;21097;-72
2022/09/15 06:41:41;;;;;;;9.10;8.20;;;;;;;;;;1842024;77;21229;-73
2022/09/15 06:44:12;;;;;;;8.10;7.30;;;;;;;;;;1821479;77;21181;-73
2022/09/15 06:46:42;;;;;;;8.63;6.92;;;;;;;;;;1823449;77;21563;-72
2022/09/15 06:49:12;;;;;;;7.22;6.47;;;;;;;;;;1848982;76;21194;-73
2022/09/15 06:51:43;;;;;;;7.60;6.80;;;;;;;;;;1809161;77;21197;-72
2022/09/15 06:54:14;;;;;;;8.15;7.35;;;;;;;;;;1822161;77;21176;-72
2022/09/15 06:56:45;;;;;;;8.03;7.22;;;;;;;;;;1826722;77;21237;-72
2022/09/15 06:59:16;;;;;;;8.63;6.83;;;;;;;;;;1844721;77;21171;-73
2022/09/15 07:01:46;;;;;;;7.65;6.65;;;;;;;;;;1842881;76;21061;-73
2022/09/15 07:04:17;;;;;;;8.48;7.28;;;;;;;;;;1829413;76;21654;-72
2022/09/15 07:06:47;;;;;;;9.88;7.20;;;;;;;;;;1850253;75;21151;-72
2022/09/15 07:09:18;;;;;;;11.00;8.45;;;;;;;;;;1878454;75;21597;-72
2022/09/15 07:11:48;;;;;;;7.90;7.10;;;;;;;;;;1861111;75;21163;-72
2022/09/15 07:14:18;;;;;;;11.93;7.92;;;;;;;;;;1875822;75;21175;-73
2022/09/15 07:16:48;;;;;;;8.25;7.45;;;;;;;;;;1819588;78;21093;-73
2022/09/15 07:19:19;;;;;;;10.25;8.25;;;;;;;;;;1849781;77;21092;-72
2022/09/15 07:21:51;;;;;;;12.25;8.30;;;;;;;;;;1837593;77;21092;-73
2022/09/15 07:24:20;;;;;;;10.35;8.45;;;;;;;;;;1835747;77;21615;-73
2022/09/15 07:26:51;;;;;;;10.75;8.15;;;;;;;;;;1847172;76;21126;-73
2022/09/15 07:29:21;;;;;;;9.98;8.05;;;;;;;;;;1848034;76;21036;-73
2022/09/15 07:31:51;;;;;;;10.03;8.65;;;;;;;;;;1849728;76;21209;-73
2022/09/15 07:34:21;;;;;;;11.12;8.18;;;;;;;;;;1850224;76;21108;-73
2022/09/15 07:36:52;;;;;;;10.80;8.30;;;;;;;;;;1840975;77;21677;-72
2022/09/15 07:39:24;;;;;;;10.00;8.73;;;;;;;;;;1851895;77;21167;-73
2022/09/15 07:41:55;;;;;;;9.33;8.43;;;;;;;;;;1847884;76;21163;-71
2022/09/15 07:44:25;;;;;;;10.65;8.68;;;;;;;;;;1844439;76;21180;-72
2022/09/15 07:46:55;;;;;;;10.50;8.55;;;;;;;;;;1849767;76;21186;-72
2022/09/15 07:49:25;;;;;;;9.78;8.25;;;;;;;;;;1846619;76;21128;-73
2022/09/15 07:51:55;;;;;;;9.55;8.65;;;;;;;;;;1835655;76;21144;-73
2022/09/15 07:54:26;;;;;;;10.00;9.03;;;;;;;;;;1856717;77;21632;-73
2022/09/15 07:56:56;;;;;;;11.22;8.90;;;;;;;;;;1843460;76;21116;-73
2022/09/15 07:59:27;;;;;;;10.58;9.15;;;;;;;;;;1898708;75;21213;-73
2022/09/15 08:01:57;;;;;;;10.82;9.38;;;;;;;;;;1876120;75;21115;-73
2022/09/15 08:04:27;;;;;;;11.05;9.08;;;;;;;;;;1878003;75;21142;-73
2022/09/15 08:06:58;;;;;;;7.70;6.95;;;;;;;;;;1881543;75;21209;-73
2022/09/15 08:09:29;;;;;;;8.00;6.22;;;;;;;;;;1856071;77;21140;-72
2022/09/15 08:11:59;;;;;;;7.20;6.50;;;;;;;;;;1801096;77;21289;-73
2022/09/15 08:14:32;;;;;;;14.70;7.87;;;;;;;;;;1840413;76;21151;-72
2022/09/15 08:17:03;;;;;;;8.03;7.00;;;;;;;;;;1792960;79;21183;-73
2022/09/15 08:19:35;;;;;;;7.30;6.10;;;;;;;;;;1830337;77;21714;-73
2022/09/15 08:22:06;;;;;;;6.92;6.08;;;;;;;;;;1861493;75;21540;-72
2022/09/15 08:24:36;;;;;;;8.98;6.55;;;;;;;;;;1841434;77;21092;-72
2022/09/15 08:27:07;;;;;;;11.55;7.33;;;;;;;;;;1807113;78;21120;-72
2022/09/15 08:29:38;;;;;;;8.65;6.95;;;;;;;;;;1835606;76;21147;-72
2022/09/15 08:32:08;;;;;;;9.28;6.17;;;;;;;;;;1824649;76;21164;-72
2022/09/15 08:34:38;;;;;;;8.68;6.67;;;;;;;;;;1881261;75;21132;-73
2022/09/15 08:37:09;;;;;;;8.83;7.80;;;;;;;;;;1852623;75;21100;-70
2022/09/15 08:39:40;;;;;;;8.38;7.58;;;;;;;;;;1838496;78;21210;-71
2022/09/15 08:42:11;;;;;;;9.95;8.20;;;;;;;;;;1854836;76;21179;-70
2022/09/15 08:44:43;;;;;;;10.90;8.45;;;;;;;;;;1827027;77;21257;-71
2022/09/15 08:47:15;;;;;;;11.73;9.08;;;;;;;;;;1868995;74;21143;-72
2022/09/15 08:49:46;;;;;;;10.78;8.83;;;;;;;;;;1884076;75;21088;-71
2022/09/15 08:52:19;;;;;;;10.38;9.28;;;;;;;;;;1850697;77;21156;-72
2022/09/15 08:54:51;;;;;;;10.98;9.28;;;;;;;;;;1836979;76;21183;-72
2022/09/15 08:57:22;;;;;;;11.90;9.80;;;;;;;;;;1851916;76;21544;-72
2022/09/15 08:59:54;;;;;;;15.28;10.38;;;;;;;;;;1835538;76;21272;-71
2022/09/15 09:02:26;;;;;;;10.55;9.20;;;;;;;;;;1861074;76;21124;-72
2022/09/15 09:05:07;;;;;;;11.70;9.38;;;;;;;;;;1848119;76;21140;-72
2022/09/15 09:07:30;;;;;;;13.15;9.10;;;;;;;;;;1851775;76;21080;-71
2022/09/15 09:10:01;;;;;;;12.30;9.60;;;;;;;;;;1839318;76;21162;-72
2022/09/15 09:12:33;;;;;;;14.85;12.47;;;;;;;;;;1851286;77;21097;-72
2022/09/15 09:15:05;;;;;;;12.88;9.60;;;;;;;;;;1856759;76;21154;-71
2022/09/15 09:17:37;;;;;;;12.40;9.53;;;;;;;;;;1845006;77;21085;-72
2022/09/15 09:20:09;;;;;;;10.43;8.43;;;;;;;;;;1838554;76;21165;-72
2022/09/15 09:22:40;;;;;;;11.90;9.28;;;;;;;;;;1846868;77;21164;-71
2022/09/15 09:25:13;;;;;;;11.65;8.85;;;;;;;;;;1842149;76;21116;-70
2022/09/15 09:27:45;;;;;;;10.25;8.70;;;;;;;;;;1803133;78;21232;-71
2022/09/15 09:30:16;;;;;;;15.72;9.23;;;;;;;;;;1797817;78;21205;-71
2022/09/15 09:32:48;;;;;;;13.95;8.38;;;;;;;;;;1860962;76;21237;-72
2022/09/15 09:35:21;;;;;;;14.90;8.68;;;;;;;;;;1846732;75;21136;-71
2022/09/15 09:37:53;;;;;;;10.23;7.75;;;;;;;;;;1860926;76;21230;-71
2022/09/15 09:40:23;;;;;;;9.40;7.60;;;;;;;;;;1866809;76;21122;-71
2022/09/15 09:42:53;;;;;;;8.08;7.25;;;;;;;;;;1852427;76;21142;-71
2022/09/15 09:45:24;;;;;;;8.80;7.85;;;;;;;;;;1862032;76;21131;-72
2022/09/15 09:47:56;;;;;;;10.50;7.42;;;;;;;;;;1862750;76;21900;-71
2022/09/15 09:50:29;;;;;;;9.05;7.97;;;;;;;;;;1856572;76;21598;-72
2022/09/15 09:52:59;;;;;;;11.70;8.05;;;;;;;;;;1858599;76;21069;-71
2022/09/15 09:55:29;;;;;;;17.67;8.50;;;;;;;;;;1860113;76;21198;-71
2022/09/15 09:58:01;;;;;;;10.15;7.87;;;;;;;;;;1861520;76;21173;-73
2022/09/15 10:00:32;;;;;;;11.70;7.35;;;;;;;;;;1849044;76;21155;-72
2022/09/15 10:03:21;;;;;;;10.03;8.38;;;;;;;;;;1861527;76;21137;-72
2022/09/15 10:05:52;;;;;;;10.58;8.50;;;;;;;;;;1936837;72;21108;-71
2022/09/15 10:08:23;;;;;;;9.33;8.18;;;;;;;;;;1916884;73;21198;-71
2022/09/15 10:10:54;;;;;;;8.70;7.70;;;;;;;;;;1934223;72;21119;-70
2022/09/15 10:13:25;;;;;;;11.12;8.45;;;;;;;;;;1936410;72;21599;-71
2022/09/15 10:15:56;;;;;;;11.08;8.70;;;;;;;;;;1934453;73;21123;-72
2022/09/15 10:18:28;;;;;;;12.30;9.73;;;;;;;;;;1926015;73;21953;-72
2022/09/15 10:20:59;;;;;;;12.90;9.70;;;;;;;;;;1926262;73;21177;-72
2022/09/15 10:23:30;;;;;;;14.65;9.73;;;;;;;;;;1912850;73;21095;-72
2022/09/15 10:26:02;;;;;;;12.88;9.85;;;;;;;;;;1850999;76;21235;-72
2022/09/15 10:28:32;;;;;;;12.33;8.95;;;;;;;;;;1926586;73;21056;-73
2022/09/15 10:31:04;;;;;;;10.30;9.00;;;;;;;;;;1919252;73;21212;-73
2022/09/15 10:33:34;;;;;;;13.50;8.83;;;;;;;;;;1925401;73;21216;-72
2022/09/15 10:36:08;;;;;;;11.80;9.30;;;;;;;;;;1937119;73;21123;-74
2022/09/15 10:38:40;;;;;;;11.28;9.43;;;;;;;;;;1917800;73;21128;-74
2022/09/15 10:41:12;;;;;;;11.88;9.20;;;;;;;;;;1923367;73;21054;-73
2022/09/15 10:43:44;;;;;;;10.80;8.68;;;;;;;;;;1927372;72;21137;-72
2022/09/15 10:46:16;;;;;;;12.63;9.40;;;;;;;;;;1924852;73;21115;-74
2022/09/15 10:48:46;;;;;;;15.78;8.85;;;;;;;;;;1915094;73;21091;-73
2022/09/15 10:51:18;;;;;;;12.25;9.03;;;;;;;;;;1915052;72;21123;-73
2022/09/15 10:53:50;;;;;;;11.73;9.88;;;;;;;;;;1914939;73;21179;-71
2022/09/15 10:56:23;;;;;;;15.15;9.50;;;;;;;;;;1928207;73;21137;-72
2022/09/15 10:58:55;;;;;;;15.93;9.85;;;;;;;;;;1932597;73;21075;-72
2022/09/15 11:01:27;;;;;;;12.63;10.13;;;;;;;;;;1934296;73;21630;-72
2022/09/15 11:04:00;;;;;;;12.90;9.78;;;;;;;;;;1909179;73;21083;-71
2022/09/15 11:06:32;;;;;;;12.05;9.25;;;;;;;;;;1919669;73;21232;-72
2022/09/15 11:09:03;;;;;;;13.32;10.35;;;;;;;;;;1917676;73;21115;-71
2022/09/15 11:11:35;;;;;;;13.28;9.90;;;;;;;;;;1914033;73;21193;-72
2022/09/15 11:14:07;;;;;;;10.75;9.75;;;;;;;;;;1906401;73;21181;-72
2022/09/15 11:16:39;;;;;;;12.47;9.30;;;;;;;;;;1925964;73;21068;-72
2022/09/15 11:19:11;;;;;;;12.23;9.35;;;;;;;;;;1911668;74;21127;-72
2022/09/15 11:21:42;;;;;;;12.15;10.68;;;;;;;;;;1927620;73;21130;-72
2022/09/15 11:24:16;;;;;;;14.53;10.45;;;;;;;;;;1910899;73;21147;-72
2022/09/15 11:26:48;;;;;;;13.48;10.05;;;;;;;;;;1919383;73;21166;-72
2022/09/15 11:29:19;;;;;;;12.05;10.00;;;;;;;;;;1912087;74;21119;-72
2022/09/15 11:31:50;;;;;;;13.75;10.48;;;;;;;;;;1926687;73;21064;-72
2022/09/15 11:34:22;;;;;;;11.70;9.83;;;;;;;;;;1915913;73;21091;-72
2022/09/15 11:36:54;;;;;;;16.57;10.85;;;;;;;;;;1925610;73;21216;-72
2022/09/15 11:39:30;;;;;;;12.10;10.50;;;;;;;;;;1912539;73;21221;-72
2022/09/15 11:41:59;;;;;;;13.40;9.85;;;;;;;;;;1915294;73;21203;-73
2022/09/15 11:44:31;;;;;;;11.75;10.43;;;;;;;;;;1918231;74;21158;-73
2022/09/15 11:47:03;;;;;;;12.25;10.80;;;;;;;;;;1913079;72;21227;-73
2022/09/15 11:49:33;;;;;;;15.03;10.88;;;;;;;;;;1908651;73;21193;-73
2022/09/15 11:52:04;;;;;;;14.70;11.10;;;;;;;;;;1915413;74;21146;-73
2022/09/15 11:54:36;;;;;;;13.30;11.57;;;;;;;;;;1924799;73;21204;-73
2022/09/15 11:57:07;;;;;;;16.48;11.30;;;;;;;;;;1929663;73;21185;-73
2022/09/15 11:59:39;;;;;;;13.62;12.18;;;;;;;;;;1877858;74;21075;-73
2022/09/15 12:02:12;;;;;;;15.55;11.60;;;;;;;;;;1865305;75;21123;-73
2022/09/15 12:04:44;;;;;;;11.90;10.45;;;;;;;;;;1928792;73;21135;-73
2022/09/15 12:07:16;;;;;;;14.20;11.57;;;;;;;;;;1931729;72;21164;-73
2022/09/15 12:09:47;;;;;;;14.18;11.00;;;;;;;;;;1939155;72;21209;-73
2022/09/15 12:12:18;;;;;;;11.85;10.48;;;;;;;;;;1935070;72;21092;-73
2022/09/15 12:14:52;;;;;;;18.85;11.95;;;;;;;;;;1930100;72;21118;-72
2022/09/15 12:17:28;;;;;;;17.15;11.40;;;;;;;;;;1930273;74;21096;-72
2022/09/15 12:19:59;;;;;;;14.65;10.82;;;;;;;;;;1926448;73;21041;-72
2022/09/15 12:22:29;;;;;;;17.60;12.30;;;;;;;;;;1935665;72;21189;-73
2022/09/15 12:25:02;;;;;;;18.25;12.30;;;;;;;;;;1929366;72;21155;-73
2022/09/15 12:27:35;;;;;;;17.85;12.70;;;;;;;;;;1938838;72;21103;-73
2022/09/15 12:30:06;;;;;;;18.05;13.62;;;;;;;;;;1927471;72;21615;-72
2022/09/15 12:32:39;;;;;;;20.45;13.70;;;;;;;;;;1926907;74;21147;-73
2022/09/15 12:35:11;;;;;;;17.50;14.20;;;;;;;;;;1936920;72;21150;-73
2022/09/15 12:37:41;;;;;;;17.95;13.65;;;;;;;;;;1923618;74;21655;-72
2022/09/15 12:40:13;;;;;;;16.77;14.13;;;;;;;;;;1929072;74;21124;-72
2022/09/15 12:42:44;;;;;;;14.98;12.78;;;;;;;;;;1923862;72;21129;-72
2022/09/15 12:45:16;;;;;;;18.35;13.50;;;;;;;;;;1929026;74;21352;-72
2022/09/15 12:47:48;;;;;;;15.58;13.68;;;;;;;;;;1933177;72;21219;-71
2022/09/15 12:50:18;;;;;;;15.98;13.13;;;;;;;;;;1933807;72;21092;-71
2022/09/15 12:52:50;;;;;;;15.85;13.60;;;;;;;;;;1923362;72;21134;-71
2022/09/15 12:55:24;;;;;;;20.68;14.40;;;;;;;;;;1919777;72;21183;-72
2022/09/15 12:57:55;;;;;;;20.15;14.60;;;;;;;;;;1921997;72;21606;-71
2022/09/15 13:00:27;;;;;;;18.20;14.78;;;;;;;;;;1916259;74;21193;-72
2022/09/15 13:02:58;;;;;;;17.85;14.60;;;;;;;;;;1927240;72;21144;-72
2022/09/15 13:05:31;;;;;;;18.32;14.63;;;;;;;;;;1936983;72;21158;-72
2022/09/15 13:08:01;;;;;;;18.10;13.83;;;;;;;;;;1931711;73;21127;-72
2022/09/15 13:10:33;;;;;;;15.75;13.18;;;;;;;;;;1942098;73;21124;-72
2022/09/15 13:13:04;;;;;;;15.10;12.73;;;;;;;;;;1939445;72;21142;-72
2022/09/15 13:15:36;;;;;;;15.93;12.63;;;;;;;;;;1940232;72;21248;-72
2022/09/15 13:18:06;;;;;;;14.87;13.10;;;;;;;;;;1940571;72;21228;-73
2022/09/15 13:20:38;;;;;;;17.02;12.75;;;;;;;;;;1928504;73;21123;-72
2022/09/15 13:23:11;;;;;;;17.40;13.18;;;;;;;;;;1926074;73;21177;-72
2022/09/15 13:25:43;;;;;;;16.77;13.15;;;;;;;;;;1937486;72;21158;-80
2022/09/15 13:28:15;;;;;;;67.10;60.03;;;;;;;;;;1936602;72;21150;-80
2022/09/15 13:30:46;;;;;;;19.10;16.97;;;;;;;;;;1932326;72;21563;-81
2022/09/15 13:33:18;;;;;;;16.02;12.07;;;;;;;;;;1929436;72;21210;-83
2022/09/15 13:35:51;;;;;;;15.53;12.00;;;;;;;;;;1934377;72;22071;-79
2022/09/15 13:38:20;;;;;;;15.48;12.00;;;;;;;;;;1941852;72;21127;-79
2022/09/15 13:40:56;;;;;;;19.65;12.37;;;;;;;;;;1921937;72;21179;-81
2022/09/15 13:43:27;;;;;;;13.08;11.28;;;;;;;;;;1948741;72;21228;-80
2022/09/15 13:46:01;;;;;;;14.65;12.15;;;;;;;;;;1940904;72;21187;-80
2022/09/15 13:48:31;;;;;;;15.40;12.53;;;;;;;;;;1938511;72;21621;-79
2022/09/15 13:51:05;;;;;;;14.05;11.93;;;;;;;;;;1891452;74;21076;-80
2022/09/15 13:53:41;;;;;;;13.88;11.75;;;;;;;;;;1886140;75;21177;-81
2022/09/15 13:56:10;;;;;;;15.23;12.73;;;;;;;;;;1884313;74;21162;-80
2022/09/15 13:58:41;;;;;;;14.13;11.90;;;;;;;;;;1855543;75;21074;-80
2022/09/15 14:01:14;;;;;;;15.45;11.48;;;;;;;;;;1842873;76;21106;-81
2022/09/15 14:03:45;;;;;;;14.93;12.00;;;;;;;;;;1880407;74;21633;-81
2022/09/15 14:06:20;;;;;;;13.28;11.55;;;;;;;;;;1895122;74;21185;-80
2022/09/15 14:08:51;;;;;;;15.15;11.08;;;;;;;;;;1888453;74;21241;-81
2022/09/15 14:11:25;;;;;;;15.58;11.25;;;;;;;;;;1884528;75;21127;-80
2022/09/15 14:13:58;;;;;;;12.60;11.30;;;;;;;;;;1846136;76;21263;-81
2022/09/15 14:16:32;;;;;;;14.55;11.90;;;;;;;;;;1866931;75;21084;-81
2022/09/15 14:19:03;;;;;;;16.27;12.28;;;;;;;;;;1924858;73;21199;-82
2022/09/15 14:21:34;;;;;;;15.88;12.47;;;;;;;;;;1909641;74;21602;-81
2022/09/15 14:24:05;;;;;;;13.98;11.75;;;;;;;;;;1921792;73;21032;-81
2022/09/15 14:26:36;;;;;;;13.08;11.65;;;;;;;;;;1922374;74;21122;-81
2022/09/15 14:29:10;;;;;;;15.58;12.35;;;;;;;;;;1917533;73;21634;-82
2022/09/15 14:31:40;;;;;;;14.47;12.63;;;;;;;;;;1902865;74;21145;-78
2022/09/15 14:34:13;;;;;;;13.68;12.23;;;;;;;;;;1928114;73;21776;-80
2022/09/15 14:36:44;;;;;;;13.43;12.03;;;;;;;;;;1907956;74;21243;-79
2022/09/15 14:39:16;;;;;;;18.35;12.70;;;;;;;;;;1916791;73;21198;-79
2022/09/15 14:41:47;;;;;;;18.48;12.23;;;;;;;;;;1918458;73;21130;-79
2022/09/15 14:44:20;;;;;;;20.20;12.65;;;;;;;;;;1914094;74;21127;-79